Cumberland, WI

2:28 AM CST on December 16, 2019 (GMT -0600)
Cumberland Municipal

Weather History for KUBE - October, 2019

Change the Weather History Date:

Saturday, October 19, 2019

  Actual Average (WUND) Record (WUND)
Temperature  
Mean Temperature 49 °F -  
Max Temperature 59 °F - - (-1)
Min Temperature 37 °F - - (-1)
Degree Days  
Heating Degree Days 16    
Moisture  
Dew Point 42 °F    
Average Humidity 79    
Maximum Humidity 100    
Minimum Humidity 51    
Precipitation  
Precipitation 0.03 in - - ()
Sea Level Pressure  
Sea Level Pressure 29.66 in    
Wind  
Wind Speed 7 mph (South)    
Max Wind Speed 13 mph    
Max Gust Speed 21 mph    
Visibility 10 miles    
Events Rain    
Averages and records for this station are not official NWS values.
T = Trace of Precipitation, MM = Missing Value Source: NWS Daily Summary

Daily Weather History Graph

Daily Weather History Graph

Search for Another Location

Airport or City:

Astronomy

Oct. 19, 2019 Rise Set
Actual Time 7:29 AM CDT 6:15 PM CDT
Civil Twilight 6:59 AM CDT 6:45 PM CDT
Nautical Twilight 6:24 AM CDT 7:20 PM CDT
Astronomical Twilight 5:50 AM CDT 7:54 PM CDT
Moon 10:12 PM CDT (10/19) 1:14 PM CDT (10/19)
Length of Visible Light 11h 46m
Length of Day
10h 46m
Waning Gibbous, 69% of the Moon is Illuminated
Oct 19
Waning Gibbous
Oct 21
Last Quarter
Oct 27
New
Nov 4
First Quarter
Nov 12
Full

Hourly Weather History & Observations

Time (CDT) Temp. Windchill Dew Point Humidity Pressure Visibility Wind Dir Wind Speed Gust Speed Precip Events Conditions
12:15 AM 53.6 °F - 39.2 °F 58% 29.64 in 10.0 mi SSE 12.7 mph 20.7 mph N/A   Scattered Clouds
12:35 AM 51.8 °F - 39.2 °F 62% 29.63 in 10.0 mi SSE 11.5 mph - N/A   Clear
12:55 AM 51.8 °F - 41.0 °F 67% 29.63 in 10.0 mi SSE 9.2 mph - N/A   Clear
1:15 AM 51.8 °F - 39.2 °F 62% 29.63 in 10.0 mi SSE 11.5 mph - N/A   Clear
1:35 AM 51.8 °F - 41.0 °F 67% 29.63 in 10.0 mi SSE 9.2 mph - N/A   Clear
1:55 AM 51.8 °F - 41.0 °F 67% 29.63 in 10.0 mi SSE 8.1 mph - N/A   Clear
2:15 AM 50.0 °F - 41.0 °F 71% 29.62 in 10.0 mi SSE 9.2 mph - N/A   Clear
2:35 AM 50.0 °F - 41.0 °F 71% 29.62 in 10.0 mi SSE 8.1 mph - N/A   Clear
2:55 AM 50.0 °F - 41.0 °F 71% 29.62 in 10.0 mi SSE 6.9 mph - N/A   Clear
3:15 AM 48.2 °F - 41.0 °F 76% 29.62 in 10.0 mi SSE 8.1 mph - N/A   Clear
3:35 AM 46.4 °F 43.5 °F 39.2 °F 76% 29.62 in 10.0 mi SSE 5.8 mph - N/A   Clear
3:55 AM 46.4 °F 43.5 °F 39.2 °F 76% 29.61 in 10.0 mi SE 5.8 mph - N/A   Clear
4:15 AM 46.4 °F 44.3 °F 39.2 °F 76% 29.61 in 10.0 mi SSE 4.6 mph - N/A   Clear
4:35 AM 44.6 °F 42.2 °F 39.2 °F 81% 29.61 in 10.0 mi SSE 4.6 mph - N/A   Clear
4:55 AM 44.6 °F 43.1 °F 39.2 °F 81% 29.62 in 10.0 mi SE 3.5 mph - N/A   Clear
5:15 AM 42.8 °F 40.1 °F 37.4 °F 81% 29.62 in 10.0 mi SSE 4.6 mph - N/A   Clear
5:35 AM 42.8 °F 41.1 °F 39.2 °F 87% 29.62 in 10.0 mi SSE 3.5 mph - N/A   Clear
5:55 AM 42.8 °F 40.1 °F 39.2 °F 87% 29.62 in 10.0 mi South 4.6 mph - N/A   Clear
6:15 AM 41.0 °F 37.1 °F 37.4 °F 87% 29.63 in 10.0 mi SSW 5.8 mph - N/A   Clear
6:35 AM 42.8 °F 40.1 °F 41.0 °F 93% 29.62 in 10.0 mi SSW 4.6 mph - N/A   Mostly Cloudy
6:55 AM 44.6 °F 41.4 °F 41.0 °F 87% 29.63 in 10.0 mi South 5.8 mph - N/A   Mostly Cloudy
7:15 AM 44.6 °F 43.1 °F 41.0 °F 87% 29.61 in 10.0 mi SSE 3.5 mph - N/A   Overcast
7:35 AM 44.6 °F 42.2 °F 41.0 °F 87% 29.62 in 10.0 mi SSE 4.6 mph - N/A   Overcast
7:55 AM 44.6 °F 43.1 °F 41.0 °F 87% 29.61 in 10.0 mi SSE 3.5 mph - N/A   Mostly Cloudy
8:35 AM 46.4 °F - 42.8 °F 87% 29.62 in 10.0 mi Calm Calm - N/A   Overcast
8:55 AM 46.4 °F 42.9 °F 42.8 °F 87% 29.66 in 10.0 mi South 6.9 mph - N/A   Overcast
9:15 AM 46.4 °F 42.4 °F 42.8 °F 87% 29.68 in 10.0 mi SSW 8.1 mph - N/A Rain Rain
9:35 AM 46.4 °F 43.5 °F 42.8 °F 87% 29.69 in 10.0 mi SSW 5.8 mph - N/A Rain Light Rain
9:55 AM 46.4 °F 44.3 °F 44.6 °F 93% 29.69 in 7.0 mi SSW 4.6 mph - N/A Rain Light Rain
10:15 AM 46.4 °F 45.2 °F 44.6 °F 93% 29.69 in 7.0 mi South 3.5 mph - N/A Rain Light Rain
10:35 AM 46.4 °F 44.3 °F 44.6 °F 93% 29.69 in 7.0 mi South 4.6 mph - 0.01 in Rain Light Rain
10:55 AM 46.4 °F 44.3 °F 44.6 °F 93% 29.68 in 5.0 mi South 4.6 mph - 0.02 in Rain Light Rain
11:15 AM 46.4 °F 42.4 °F 46.4 °F 100% 29.67 in 7.0 mi SSE 8.1 mph - 0.01 in Rain Light Rain
11:35 AM 48.2 °F - 46.4 °F 93% 29.68 in 10.0 mi SW 5.8 mph - 0.01 in   Overcast
11:55 AM 48.2 °F - 46.4 °F 93% 29.69 in 10.0 mi SSW 4.6 mph - 0.01 in   Overcast
12:15 PM 48.2 °F - 46.4 °F 93% 29.69 in 10.0 mi SSW 6.9 mph - N/A   Overcast
12:35 PM 50.0 °F - 46.4 °F 87% 29.69 in 10.0 mi SW 6.9 mph - N/A   Mostly Cloudy
12:55 PM 50.0 °F - 46.4 °F 87% 29.69 in 10.0 mi SW 6.9 mph - N/A   Scattered Clouds
1:15 PM 51.8 °F - 46.4 °F 82% 29.68 in 10.0 mi SSW 4.6 mph - N/A   Clear
1:35 PM 51.8 °F - 46.4 °F 82% 29.67 in 10.0 mi SSW 8.1 mph - N/A   Clear
1:55 PM 53.6 °F - 44.6 °F 72% 29.67 in 10.0 mi SSW 10.4 mph - N/A   Clear
2:15 PM 55.4 °F - 46.4 °F 72% 29.66 in 10.0 mi SSW 8.1 mph - N/A   Clear
2:35 PM 55.4 °F - 44.6 °F 67% 29.66 in 10.0 mi South 9.2 mph - N/A   Clear
2:55 PM 57.2 °F - 44.6 °F 63% 29.66 in 10.0 mi SSW 8.1 mph - N/A   Clear
3:15 PM 57.2 °F - 44.6 °F 63% 29.66 in 10.0 mi SSW 9.2 mph - N/A   Clear
3:35 PM 59.0 °F - 42.8 °F 55% 29.66 in 10.0 mi SW 8.1 mph - N/A   Clear
3:55 PM 59.0 °F - 42.8 °F 55% 29.66 in 10.0 mi SW 10.4 mph - N/A   Clear
4:15 PM 59.0 °F - 41.0 °F 51% 29.66 in 10.0 mi SW 8.1 mph - N/A   Clear
4:35 PM 59.0 °F - 41.0 °F 51% 29.66 in 10.0 mi SSW 8.1 mph - N/A   Clear
4:55 PM 59.0 °F - 41.0 °F 51% 29.66 in 10.0 mi SW 8.1 mph - N/A   Clear
5:15 PM 59.0 °F - 41.0 °F 51% 29.67 in 10.0 mi SSW 6.9 mph - N/A   Clear
5:35 PM 55.4 °F - 41.0 °F 58% 29.67 in 10.0 mi South 4.6 mph - N/A   Clear
5:55 PM 53.6 °F - 41.0 °F 62% 29.67 in 10.0 mi South 5.8 mph - N/A   Clear
6:15 PM 51.8 °F - 41.0 °F 67% 29.67 in 10.0 mi South 5.8 mph - N/A   Clear
6:35 PM 50.0 °F - 41.0 °F 71% 29.67 in 10.0 mi SSE 5.8 mph - N/A   Clear
6:55 PM 48.2 °F - 41.0 °F 76% 29.68 in 10.0 mi SSE 5.8 mph - N/A   Clear
7:15 PM 48.2 °F - 41.0 °F 76% 29.69 in 10.0 mi SSE 4.6 mph - N/A   Clear
7:35 PM 46.4 °F 43.5 °F 41.0 °F 81% 29.69 in 10.0 mi South 5.8 mph - N/A   Clear
7:55 PM 46.4 °F 43.5 °F 41.0 °F 81% 29.69 in 10.0 mi South 5.8 mph - N/A   Clear
8:15 PM 44.6 °F 43.1 °F 41.0 °F 87% 29.70 in 10.0 mi SSW 3.5 mph - N/A   Clear
8:35 PM 44.6 °F - 39.2 °F 81% 29.70 in 10.0 mi Calm Calm - N/A   Clear
8:55 PM 44.6 °F 42.2 °F 41.0 °F 87% 29.71 in 10.0 mi SW 4.6 mph - N/A   Scattered Clouds
9:15 PM 44.6 °F 41.4 °F 41.0 °F 87% 29.71 in 10.0 mi SW 5.8 mph - N/A   Scattered Clouds
9:35 PM 44.6 °F 42.2 °F 41.0 °F 87% 29.72 in 10.0 mi SW 4.6 mph - N/A   Scattered Clouds
9:55 PM 42.8 °F 41.1 °F 39.2 °F 87% 29.72 in 10.0 mi SSW 3.5 mph - N/A   Clear
10:15 PM 42.8 °F - 41.0 °F 93% 29.72 in 10.0 mi Calm Calm - N/A   Clear
10:35 PM 42.8 °F 40.1 °F 41.0 °F 93% 29.73 in 10.0 mi South 4.6 mph - N/A   Clear
10:55 PM 41.0 °F - 39.2 °F 93% 29.73 in 10.0 mi Calm Calm - N/A   Clear
11:15 PM 41.0 °F - 41.0 °F 100% 29.73 in 10.0 mi Calm Calm - N/A   Clear
11:35 PM 39.2 °F - 37.4 °F 93% 29.74 in 3.0 mi Calm Calm - N/A   Clear
11:55 PM 37.4 °F - 37.4 °F 100% 29.74 in 10.0 mi Calm Calm - N/A   Clear